Time,TemperatureF,DewpointF,PressureIn,WindDirection,WindDirectionDegrees,WindSpeedMPH,WindSpeedGustMPH,Humidity,HourlyPrecipIn,Conditions,Clouds,dailyrainin,SoftwareType,DateUTC
2013-02-16 00:01:00,64.0,18.0,29.98,North,0,0.0,0.0,17,0.00,,,0.01,,2013-02-16 08:01:00,
2013-02-16 00:11:00,64.0,18.0,29.98,North,0,0.0,0.0,17,0.00,,,0.01,,2013-02-16 08:11:00,
2013-02-16 00:21:00,63.0,19.0,29.97,North,0,0.0,0.0,18,0.00,,,0.01,,2013-02-16 08:21:00,
2013-02-16 00:31:00,63.0,19.0,29.97,North,0,0.0,0.0,18,0.00,,,0.01,,2013-02-16 08:31:00,
2013-02-16 00:41:00,63.0,19.0,29.97,North,0,0.0,0.0,18,0.00,,,0.01,,2013-02-16 08:41:00,
2013-02-16 00:52:00,63.0,18.0,29.97,North,0,0.0,35.0,17,0.00,,,0.01,,2013-02-16 08:52:00,
2013-02-16 01:01:00,63.0,18.0,29.98,North,0,0.0,0.0,17,0.00,,,0.01,,2013-02-16 09:01:00,
2013-02-16 01:11:00,63.0,18.0,29.98,North,0,0.0,0.0,17,0.00,,,0.01,,2013-02-16 09:11:00,
2013-02-16 01:21:00,63.0,18.0,29.97,North,0,0.0,0.0,17,0.00,,,0.01,,2013-02-16 09:21:00,
2013-02-16 01:31:00,63.0,18.0,29.97,North,0,0.0,0.0,17,0.00,,,0.01,,2013-02-16 09:31:00,
2013-02-16 01:42:00,63.0,18.0,29.97,North,0,0.0,0.0,17,0.00,,,0.01,,2013-02-16 09:42:00,
2013-02-16 01:51:00,63.0,18.0,29.97,North,0,0.0,0.0,17,0.00,,,0.01,,2013-02-16 09:51:00,
2013-02-16 02:01:00,63.0,18.0,29.97,NE,46,28.0,37.0,17,0.00,,,0.01,,2013-02-16 10:01:00,
2013-02-16 02:11:00,63.0,18.0,29.95,North,0,0.0,0.0,17,0.00,,,0.01,,2013-02-16 10:11:00,
2013-02-16 02:21:00,63.0,18.0,29.95,North,0,0.0,0.0,17,0.00,,,0.01,,2013-02-16 10:21:00,
2013-02-16 02:31:00,63.0,18.0,29.95,North,0,0.0,0.0,17,0.00,,,0.01,,2013-02-16 10:31:00,
2013-02-16 02:41:00,63.0,18.0,29.95,North,0,0.0,0.0,17,0.00,,,0.01,,2013-02-16 10:41:00,
2013-02-16 02:52:00,63.0,18.0,29.95,ENE,74,26.0,39.0,17,0.00,,,0.01,,2013-02-16 10:52:00,
2013-02-16 03:01:00,63.0,19.0,29.94,NNE,33,22.0,38.0,18,0.00,,,0.01,,2013-02-16 11:01:00,
2013-02-16 03:11:00,63.0,19.0,29.94,NNE,33,22.0,38.0,18,0.00,,,0.01,,2013-02-16 11:11:00,
2013-02-16 03:22:00,62.0,18.0,29.93,North,8,30.0,40.0,18,0.00,,,0.01,,2013-02-16 11:22:00,
2013-02-16 03:31:00,62.0,18.0,29.93,North,8,30.0,40.0,18,0.00,,,0.01,,2013-02-16 11:31:00,
2013-02-16 03:42:00,62.0,18.0,29.93,North,8,30.0,40.0,18,0.00,,,0.01,,2013-02-16 11:42:00,
2013-02-16 03:52:00,62.0,18.0,29.93,NNE,33,27.0,40.0,18,0.00,,,0.00,,2013-02-16 11:52:00,
2013-02-16 04:01:00,62.0,19.0,29.93,NE,46,26.0,40.0,19,0.00,,,0.00,,2013-02-16 12:01:00,
2013-02-16 04:12:00,62.0,19.0,29.93,NE,46,26.0,40.0,19,0.00,,,0.00,,2013-02-16 12:12:00,
2013-02-16 04:22:00,62.0,19.0,29.93,ENE,67,20.0,38.0,19,0.00,,,0.00,,2013-02-16 12:22:00,
2013-02-16 04:32:00,62.0,19.0,29.93,ENE,67,20.0,38.0,19,0.00,,,0.00,,2013-02-16 12:32:00,
2013-02-16 04:42:00,62.0,19.0,29.93,ENE,67,20.0,38.0,19,0.00,,,0.00,,2013-02-16 12:42:00,
2013-02-16 04:52:00,62.0,19.0,29.93,NE,41,21.0,39.0,19,0.00,,,0.00,,2013-02-16 12:52:00,
2013-02-16 05:01:00,62.0,19.0,29.93,NE,41,21.0,39.0,19,0.00,,,0.00,,2013-02-16 13:01:00,
2013-02-16 05:11:00,62.0,19.0,29.93,NE,49,27.0,38.0,19,0.00,,,0.00,,2013-02-16 13:11:00,
2013-02-16 05:21:00,62.0,19.0,29.93,NE,49,27.0,38.0,19,0.00,,,0.00,,2013-02-16 13:21:00,
2013-02-16 05:32:00,62.0,19.0,29.93,NE,49,27.0,38.0,19,0.00,,,0.00,,2013-02-16 13:32:00,
2013-02-16 05:42:00,62.0,19.0,29.93,NE,49,27.0,38.0,19,0.00,,,0.00,,2013-02-16 13:42:00,
2013-02-16 05:51:00,61.0,18.0,29.93,ENE,65,30.0,39.0,19,0.00,,,0.00,,2013-02-16 13:51:00,
2013-02-16 06:01:00,61.0,18.0,29.93,NE,46,27.0,38.0,19,0.00,,,0.00,,2013-02-16 14:01:00,
2013-02-16 06:11:00,61.0,18.0,29.93,NE,46,27.0,38.0,19,0.00,,,0.00,,2013-02-16 14:11:00,
2013-02-16 06:21:00,61.0,18.0,29.94,NE,49,29.0,38.0,19,0.00,,,0.00,,2013-02-16 14:21:00,
2013-02-16 06:32:00,61.0,18.0,29.94,NE,49,29.0,38.0,19,0.00,,,0.00,,2013-02-16 14:32:00,
2013-02-16 06:41:00,61.0,18.0,29.94,NE,49,29.0,38.0,19,0.00,,,0.00,,2013-02-16 14:41:00,
2013-02-16 06:52:00,61.0,18.0,29.94,NE,48,31.0,38.0,19,0.00,,,0.00,,2013-02-16 14:52:00,
2013-02-16 07:01:00,61.0,18.0,29.94,NE,49,27.0,36.0,19,0.00,,,0.00,,2013-02-16 15:01:00,
2013-02-16 07:11:00,61.0,18.0,29.94,NE,49,27.0,36.0,19,0.00,,,0.00,,2013-02-16 15:11:00,
2013-02-16 07:21:00,61.0,18.0,29.94,NE,43,32.0,32.0,19,0.00,,,0.00,,2013-02-16 15:21:00,
2013-02-16 07:31:00,61.0,18.0,29.94,NE,43,32.0,32.0,19,0.00,,,0.00,,2013-02-16 15:31:00,
2013-02-16 07:41:00,61.0,18.0,29.94,NE,43,32.0,32.0,19,0.00,,,0.00,,2013-02-16 15:41:00,
2013-02-16 11:21:00,68.0,24.0,29.94,NE,53,5.0,14.0,19,0.00,,,0.00,,2013-02-16 19:21:00,
2013-02-16 11:31:00,68.0,24.0,29.94,NE,53,5.0,14.0,19,0.00,,,0.00,,2013-02-16 19:31:00,
2013-02-16 11:42:00,68.0,24.0,29.94,NE,53,5.0,14.0,19,0.00,,,0.00,,2013-02-16 19:42:00,
2013-02-16 11:52:00,68.0,22.0,29.94,SE,126,8.0,11.0,17,0.00,,,0.00,,2013-02-16 19:52:00,
2013-02-16 12:01:00,69.0,24.0,29.93,ESE,104,9.0,14.0,18,0.00,,,0.00,,2013-02-16 20:01:00,
2013-02-16 12:11:00,69.0,24.0,29.93,ESE,104,9.0,14.0,18,0.00,,,0.00,,2013-02-16 20:11:00,
2013-02-16 12:21:00,69.0,24.0,29.93,ESE,104,9.0,14.0,18,0.00,,,0.00,,2013-02-16 20:21:00,
2013-02-16 12:32:00,69.0,24.0,29.93,ESE,104,9.0,14.0,18,0.00,,,0.00,,2013-02-16 20:32:00,
2013-02-16 12:42:00,69.0,21.0,29.90,North,0,0.0,11.0,16,0.00,,,0.00,,2013-02-16 20:42:00,
2013-02-16 12:52:00,69.0,21.0,29.90,North,0,0.0,11.0,16,0.00,,,0.00,,2013-02-16 20:52:00,
2013-02-16 13:02:00,69.0,21.0,29.90,North,0,0.0,11.0,16,0.00,,,0.00,,2013-02-16 21:02:00,
2013-02-16 13:11:00,69.0,21.0,29.90,North,0,0.0,11.0,16,0.00,,,0.00,,2013-02-16 21:11:00,
2013-02-16 13:21:00,71.0,29.0,29.87,SSW,195,3.0,9.0,21,0.00,,,0.00,,2013-02-16 21:21:00,
2013-02-16 13:32:00,71.0,29.0,29.87,SSW,195,3.0,9.0,21,0.00,,,0.00,,2013-02-16 21:32:00,
2013-02-16 13:42:00,71.0,29.0,29.87,SSW,195,3.0,9.0,21,0.00,,,0.00,,2013-02-16 21:42:00,
2013-02-16 13:52:00,71.0,29.0,29.87,North,0,0.0,4.0,21,0.00,,,0.00,,2013-02-16 21:52:00,
2013-02-16 14:01:00,68.0,30.0,29.86,South,177,7.0,13.0,24,0.00,,,0.00,,2013-02-16 22:01:00,
2013-02-16 14:11:00,68.0,30.0,29.86,South,177,7.0,13.0,24,0.00,,,0.00,,2013-02-16 22:11:00,
2013-02-16 14:21:00,68.0,30.0,29.86,South,177,7.0,13.0,24,0.00,,,0.00,,2013-02-16 22:21:00,
2013-02-16 14:31:00,68.0,30.0,29.86,South,177,7.0,13.0,24,0.00,,,0.00,,2013-02-16 22:31:00,
2013-02-16 15:02:00,67.0,27.0,29.84,South,179,6.0,14.0,22,0.00,,,0.00,,2013-02-16 23:02:00,
2013-02-16 15:11:00,67.0,27.0,29.84,South,179,6.0,14.0,22,0.00,,,0.00,,2013-02-16 23:11:00,
2013-02-16 15:21:00,67.0,27.0,29.84,South,179,6.0,14.0,22,0.00,,,0.00,,2013-02-16 23:21:00,
2013-02-16 15:31:00,67.0,27.0,29.84,South,179,6.0,14.0,22,0.00,,,0.00,,2013-02-16 23:31:00,
2013-02-16 15:41:00,67.0,27.0,29.84,South,179,6.0,14.0,22,0.00,,,0.00,,2013-02-16 23:41:00,
2013-02-16 16:02:00,66.0,23.0,29.83,South,177,5.0,13.0,19,0.00,,,0.00,,2013-02-17 00:02:00,
2013-02-16 16:12:00,66.0,23.0,29.83,South,177,5.0,13.0,19,0.00,,,0.00,,2013-02-17 00:12:00,
2013-02-16 16:21:00,66.0,23.0,29.83,South,177,5.0,13.0,19,0.00,,,0.00,,2013-02-17 00:21:00,
2013-02-16 16:31:00,66.0,23.0,29.83,South,177,5.0,13.0,19,0.00,,,0.00,,2013-02-17 00:31:00,
2013-02-16 16:41:00,66.0,23.0,29.83,South,177,5.0,13.0,19,0.00,,,0.00,,2013-02-17 00:41:00,
2013-02-16 17:01:00,65.0,19.0,29.81,SSW,210,3.0,10.0,17,0.00,,,0.00,,2013-02-17 01:01:00,
2013-02-16 17:11:00,65.0,19.0,29.81,SSW,210,3.0,10.0,17,0.00,,,0.00,,2013-02-17 01:11:00,
2013-02-16 17:21:00,65.0,19.0,29.81,SSW,210,3.0,10.0,17,0.00,,,0.00,,2013-02-17 01:21:00,
2013-02-16 17:31:00,65.0,19.0,29.81,SSW,210,3.0,10.0,17,0.00,,,0.00,,2013-02-17 01:31:00,
2013-02-16 17:41:00,65.0,19.0,29.81,SSW,210,3.0,10.0,17,0.00,,,0.00,,2013-02-17 01:41:00,
2013-02-16 17:52:00,64.0,14.0,29.81,SSW,210,10.0,13.0,14,0.00,,,0.00,,2013-02-17 01:52:00,
2013-02-16 18:01:00,64.0,14.0,29.81,SSW,210,10.0,13.0,14,0.00,,,0.00,,2013-02-17 02:01:00,
2013-02-16 18:11:00,64.0,14.0,29.81,SSW,210,10.0,13.0,14,0.00,,,0.00,,2013-02-17 02:11:00,
2013-02-16 18:21:00,64.0,14.0,29.81,SSW,210,10.0,13.0,14,0.00,,,0.00,,2013-02-17 02:21:00,
2013-02-16 18:52:00,63.0,15.0,29.81,North,0,0.0,7.0,15,0.00,,,0.00,,2013-02-17 02:52:00,
2013-02-16 19:01:00,63.0,15.0,29.81,North,0,0.0,7.0,15,0.00,,,0.00,,2013-02-17 03:01:00,
2013-02-16 19:21:00,63.0,18.0,29.80,WNW,288,9.0,10.0,17,0.00,,,0.00,,2013-02-17 03:21:00,
2013-02-16 19:32:00,63.0,18.0,29.80,WNW,288,9.0,10.0,17,0.00,,,0.00,,2013-02-17 03:32:00,
2013-02-16 19:42:00,63.0,18.0,29.80,WNW,288,9.0,10.0,17,0.00,,,0.00,,2013-02-17 03:42:00,
2013-02-16 19:51:00,63.0,18.0,29.80,WNW,288,9.0,10.0,17,0.00,,,0.00,,2013-02-17 03:51:00,
2013-02-16 20:01:00,63.0,18.0,29.80,WNW,288,9.0,10.0,17,0.00,,,0.00,,2013-02-17 04:01:00,
2013-02-16 21:01:00,64.0,15.0,29.79,North,0,0.0,0.0,15,0.00,,,0.00,,2013-02-17 05:01:00,
2013-02-16 21:12:00,63.0,21.0,29.79,NNE,12,10.0,12.0,20,0.00,,,0.00,,2013-02-17 05:12:00,
2013-02-16 21:22:00,63.0,21.0,29.79,NNE,12,10.0,12.0,20,0.00,,,0.00,,2013-02-17 05:22:00,
2013-02-16 21:32:00,63.0,21.0,29.79,NNE,12,10.0,12.0,20,0.00,,,0.00,,2013-02-17 05:32:00,
2013-02-16 21:42:00,63.0,21.0,29.79,NNE,12,10.0,12.0,20,0.00,,,0.00,,2013-02-17 05:42:00,
2013-02-16 21:52:00,62.0,22.0,29.79,NNE,15,10.0,13.0,21,0.00,,,0.00,,2013-02-17 05:52:00,
2013-02-16 22:01:00,62.0,22.0,29.79,NNE,15,10.0,13.0,21,0.00,,,0.00,,2013-02-17 06:01:00,
2013-02-16 22:11:00,62.0,22.0,29.79,NNE,15,10.0,13.0,21,0.00,,,0.00,,2013-02-17 06:11:00,
2013-02-16 22:21:00,62.0,22.0,29.79,NNE,15,10.0,13.0,21,0.00,,,0.00,,2013-02-17 06:21:00,
2013-02-16 22:52:00,63.0,21.0,29.78,NE,36,15.0,18.0,20,0.00,,,0.00,,2013-02-17 06:52:00,
2013-02-16 23:01:00,62.0,22.0,29.77,NE,35,14.0,16.0,21,0.00,,,0.00,,2013-02-17 07:01:00,
2013-02-16 23:11:00,62.0,20.0,29.76,NE,37,14.0,16.0,20,0.00,,,0.00,,2013-02-17 07:11:00,
2013-02-16 23:21:00,62.0,20.0,29.76,NE,37,14.0,16.0,20,0.00,,,0.00,,2013-02-17 07:21:00,
2013-02-16 23:31:00,62.0,20.0,29.76,NE,37,14.0,16.0,20,0.00,,,0.00,,2013-02-17 07:31:00,
2013-02-16 23:41:00,62.0,20.0,29.76,NE,37,14.0,16.0,20,0.00,,,0.00,,2013-02-17 07:41:00,
2013-02-16 23:52:00,62.0,20.0,29.76,NE,37,14.0,16.0,20,0.00,,,0.00,,2013-02-17 07:52:00,